createdAt,value
2022-08-25T00:02:24.366Z,979.31
2022-08-25T00:07:54.426Z,979.29
2022-08-25T00:13:28.259Z,979.38
2022-08-25T00:18:57.922Z,979.33
2022-08-25T00:24:33.822Z,979.2
2022-08-25T00:30:05.586Z,979.08
2022-08-25T00:35:37.258Z,979.44
2022-08-25T00:41:09.020Z,979.54
2022-08-25T00:46:40.906Z,979.31
2022-08-25T00:52:12.535Z,979.58
2022-08-25T00:57:44.414Z,979.5
2022-08-25T01:03:16.174Z,979.44
2022-08-25T01:08:51.510Z,979.5
2022-08-25T01:14:19.358Z,979.37
2022-08-25T01:19:51.073Z,979.15
2022-08-25T01:25:27.162Z,979.32
2022-08-25T01:30:59.321Z,979.54
2022-08-25T01:36:30.579Z,979.63
2022-08-25T01:42:02.313Z,979.36
2022-08-25T01:47:34.094Z,979.23
2022-08-25T01:53:05.761Z,979.13
2022-08-25T01:58:37.545Z,979.39
2022-08-25T02:04:09.561Z,979.79
2022-08-25T02:09:41.350Z,979.93
2022-08-25T02:15:12.713Z,979.94
2022-08-25T02:20:44.381Z,979.47
2022-08-25T02:26:22.486Z,979.79
2022-08-25T02:31:54.229Z,979.6
2022-08-25T02:37:25.920Z,979.49
2022-08-25T02:42:57.677Z,979.49
2022-08-25T02:48:29.406Z,979.51
2022-08-25T02:54:01.152Z,979.52
2022-08-25T02:59:32.848Z,979.59
2022-08-25T03:05:04.662Z,979.83
2022-08-25T03:10:36.374Z,979.85
2022-08-25T03:16:12.872Z,979.89
2022-08-25T03:21:39.712Z,980.03
2022-08-25T03:27:17.841Z,980.16
2022-08-25T03:32:49.557Z,980.27
2022-08-25T03:38:21.224Z,979.96
2022-08-25T03:43:53.021Z,979.98
2022-08-25T03:49:24.843Z,980.06
2022-08-25T03:54:56.429Z,979.88
2022-08-25T04:00:28.154Z,979.47
2022-08-25T04:05:59.862Z,979.66
2022-08-25T04:11:31.613Z,979.79
2022-08-25T04:17:03.334Z,980.04
2022-08-25T04:22:37.805Z,980.11
2022-08-25T04:28:13.238Z,980.5
2022-08-25T04:33:44.945Z,980.5
2022-08-25T04:39:16.581Z,980.41
2022-08-25T04:44:48.311Z,980.43
2022-08-25T04:50:20.049Z,980.59
2022-08-25T04:55:51.789Z,980.44
2022-08-25T05:01:23.654Z,980.42
2022-08-25T05:06:55.324Z,980.46
2022-08-25T05:12:33.297Z,980.57
2022-08-25T05:17:58.730Z,980.55
2022-08-25T05:23:30.378Z,980.48
2022-08-25T05:29:06.612Z,980.56
2022-08-25T05:34:38.169Z,980.8
2022-08-25T05:40:10.214Z,980.69
2022-08-25T05:45:41.932Z,980.85
2022-08-25T05:51:13.430Z,981.12
2022-08-25T05:56:45.115Z,981.37
2022-08-25T06:02:16.891Z,981.68
2022-08-25T06:07:48.521Z,981.96
2022-08-25T06:13:29.486Z,982.35
2022-08-25T06:18:51.914Z,982.26
2022-08-25T06:24:23.672Z,982.19
2022-08-25T06:30:08.558Z,982.15
2022-08-25T06:35:35.625Z,981.61
2022-08-25T06:41:03.299Z,982.47
2022-08-25T06:46:37.779Z,982.81
2022-08-25T06:52:06.719Z,982.97
2022-08-25T06:57:38.530Z,983.15
2022-08-25T07:03:11.595Z,982.72
2022-08-25T07:08:41.887Z,982.57
2022-08-25T07:14:13.603Z,982.75
2022-08-25T07:19:45.342Z,982.94
2022-08-25T07:25:18.556Z,982.9
2022-08-25T07:30:53.179Z,982.51
2022-08-25T07:36:25.185Z,982.33
2022-08-25T07:41:56.554Z,982.25
2022-08-25T07:47:28.386Z,981.8
2022-08-25T07:53:00.290Z,982.33
2022-08-25T07:58:31.923Z,982.35
2022-08-25T08:04:04.477Z,982.52
2022-08-25T08:09:35.189Z,982.13
2022-08-25T08:15:11.318Z,982.39
2022-08-25T08:20:43.682Z,982.67
2022-08-25T08:26:10.403Z,982.04
2022-08-25T08:31:49.623Z,981.97
2022-08-25T08:37:18.193Z,982.05
2022-08-25T08:42:49.905Z,981.9
2022-08-25T08:48:23.505Z,981.93
2022-08-25T08:53:53.397Z,981.69
2022-08-25T08:59:31.622Z,981.92
2022-08-25T09:04:57.085Z,981.6
2022-08-25T09:10:28.506Z,980.88
2022-08-25T09:16:02.329Z,981.17
2022-08-25T09:21:32.149Z,981.1
2022-08-25T09:27:04.429Z,980.79
2022-08-25T09:32:52.993Z,980.52
2022-08-25T09:38:13.661Z,981.05
2022-08-25T09:43:45.270Z,981.11
2022-08-25T09:49:17.045Z,980.65
2022-08-25T09:54:48.718Z,980.37
2022-08-25T10:00:22.248Z,979.82
2022-08-25T10:05:56.960Z,980.3
2022-08-25T10:11:24.190Z,980.02
2022-08-25T10:16:55.998Z,980.34
2022-08-25T10:22:27.395Z,979.97
2022-08-25T10:27:59.010Z,979.89
2022-08-25T10:33:36.205Z,979.89
2022-08-25T10:39:40.594Z,979.72
2022-08-25T10:44:38.938Z,979.15
2022-08-25T10:50:11.902Z,978.9
2022-08-25T10:55:42.286Z,978.94
2022-08-25T11:01:13.963Z,979.19
2022-08-25T11:06:45.600Z,979.87
2022-08-25T11:12:17.414Z,978.08
2022-08-25T11:17:51.018Z,979.12
2022-08-25T11:23:24.077Z,979.29
2022-08-25T11:28:52.786Z,978.35
2022-08-25T11:34:30.566Z,978.62
2022-08-25T11:40:02.303Z,978.26
2022-08-25T11:45:34.141Z,977.89
2022-08-25T11:51:05.661Z,977.97
2022-08-25T11:56:40.837Z,977.39
2022-08-25T12:02:09.097Z,978.3
2022-08-25T12:07:41.078Z,978.28
2022-08-25T12:13:12.617Z,977.91
2022-08-25T12:18:50.751Z,977.99
2022-08-25T12:24:16.271Z,977.6
2022-08-25T12:29:47.849Z,977.54
2022-08-25T12:35:25.833Z,978.09
2022-08-25T12:40:58.378Z,977.3
2022-08-25T12:46:30.184Z,977.65
2022-08-25T12:52:00.962Z,977.52
2022-08-25T12:57:33.204Z,976.96
2022-08-25T13:03:06.547Z,976.75
2022-08-25T13:08:38.342Z,976.62
2022-08-25T13:14:10.585Z,976.97
2022-08-25T13:19:39.577Z,976.53
2022-08-25T13:25:11.209Z,976.11
2022-08-25T13:30:43.077Z,975.3
2022-08-25T13:36:21.166Z,975.57
2022-08-25T13:41:56.205Z,976.04
2022-08-25T13:47:26.057Z,975.95
2022-08-25T13:52:56.496Z,975.55
2022-08-25T13:58:46.790Z,975.36
2022-08-25T14:04:02.051Z,975.28
2022-08-25T14:09:31.388Z,974.86
2022-08-25T14:15:03.809Z,974.91
2022-08-25T14:20:34.895Z,974.97
2022-08-25T14:26:08.235Z,975.11
2022-08-25T14:31:38.581Z,975.02
2022-08-25T14:37:16.332Z,975.74
2022-08-25T14:42:46.866Z,975.7
2022-08-25T14:48:18.575Z,975.05
2022-08-25T14:53:51.242Z,975.52
2022-08-25T14:59:22.019Z,975.21
2022-08-25T15:04:53.814Z,974.65
2022-08-25T15:10:25.449Z,974.55
2022-08-25T15:16:00.624Z,974.29
2022-08-25T15:21:29.562Z,974.47
2022-08-25T15:27:01.615Z,974.33
2022-08-25T15:32:32.763Z,973.88
2022-08-25T15:38:08.980Z,974.32
2022-08-25T15:43:40.220Z,974.08
2022-08-25T15:49:11.965Z,974.3
2022-08-25T15:54:45.940Z,974.12
2022-08-25T16:00:17.999Z,973.75
2022-08-25T16:05:49.938Z,974.61
2022-08-25T16:11:18.856Z,974.39
2022-08-25T16:16:51.843Z,974.38
2022-08-25T16:22:22.990Z,974.23
2022-08-25T16:27:54.121Z,974.16
2022-08-25T16:33:26.233Z,974.37
2022-08-25T16:39:02.148Z,974.08
2022-08-25T16:44:33.596Z,974.47
2022-08-25T16:50:05.348Z,974.11
2022-08-25T16:55:40.265Z,974.25
2022-08-25T17:01:11.260Z,973.96
2022-08-25T17:06:52.003Z,973.9
2022-08-25T17:12:12.609Z,974.03
2022-08-25T17:17:44.013Z,973.84
2022-08-25T17:23:16.178Z,973.83
2022-08-25T17:28:47.549Z,973.71
2022-08-25T17:34:23.890Z,973.72
2022-08-25T17:40:04.053Z,973.73
2022-08-25T17:45:29.061Z,973.52
2022-08-25T17:51:00.748Z,973.56
2022-08-25T17:56:32.504Z,973.62
2022-08-25T18:02:05.426Z,973.37
2022-08-25T18:07:35.918Z,973.34
2022-08-25T18:13:07.620Z,973.31
2022-08-25T18:18:42.240Z,973.17
2022-08-25T18:24:11.106Z,973.26
2022-08-25T18:29:42.873Z,973.1
2022-08-25T18:35:14.438Z,973.28
2022-08-25T18:40:51.497Z,973.26
2022-08-25T18:46:23.706Z,973.22
2022-08-25T18:51:54.529Z,973.23
2022-08-25T18:57:29.211Z,973.31
2022-08-25T19:02:58.361Z,973.28
2022-08-25T19:08:29.347Z,973.35
2022-08-25T19:14:01.053Z,973.35
2022-08-25T19:19:32.742Z,973.38
2022-08-25T19:25:05.301Z,973.42
2022-08-25T19:30:36.189Z,973.44
2022-08-25T19:36:09.358Z,973.6
2022-08-25T19:41:44.362Z,973.58
2022-08-25T19:47:21.509Z,973.67
2022-08-25T19:52:50.541Z,973.7
2022-08-25T19:58:19.702Z,973.68
2022-08-25T20:03:50.895Z,973.81
2022-08-25T20:09:41.510Z,973.92
2022-08-25T20:14:55.426Z,973.94
2022-08-25T20:20:35.458Z,973.95
2022-08-25T20:25:57.811Z,973.96
2022-08-25T20:31:29.457Z,974.06
2022-08-25T20:37:01.213Z,974.04
2022-08-25T20:42:40.925Z,974.03
2022-08-25T20:48:09.166Z,974.06
2022-08-25T20:53:41.300Z,974.24
2022-08-25T20:59:12.480Z,974.34
2022-08-25T21:04:51.036Z,974.31
2022-08-25T21:10:15.905Z,974.35
2022-08-25T21:15:48.229Z,974.3
2022-08-25T21:21:19.321Z,974.28
2022-08-25T21:26:51.073Z,974.45
2022-08-25T21:32:22.777Z,974.57
2022-08-25T21:37:55.855Z,974.71
2022-08-25T21:43:30.531Z,974.84
2022-08-25T21:49:08.774Z,974.81
2022-08-25T21:54:34.302Z,974.87
2022-08-25T22:00:05.852Z,974.85
2022-08-25T22:05:38.481Z,974.85
2022-08-25T22:11:09.143Z,974.99
2022-08-25T22:16:41.378Z,975.05
2022-08-25T22:22:12.617Z,974.88
2022-08-25T22:27:44.652Z,975.03
2022-08-25T22:33:16.277Z,975.12
2022-08-25T22:38:47.797Z,974.94
2022-08-25T22:44:24.005Z,974.85
2022-08-25T22:49:55.633Z,975.05
2022-08-25T22:55:28.837Z,974.89
2022-08-25T23:00:59.170Z,974.82
2022-08-25T23:06:30.793Z,974.78
2022-08-25T23:12:02.466Z,974.87
2022-08-25T23:17:34.167Z,975.16
2022-08-25T23:23:08.916Z,975.24
2022-08-25T23:28:38.272Z,974.91
2022-08-25T23:34:09.440Z,974.94
2022-08-25T23:39:41.365Z,974.97
2022-08-25T23:45:17.185Z,975.04
2022-08-25T23:50:54.773Z,974.94
2022-08-25T23:56:22.566Z,974.82
